Time;durP1;ratioP1;P1;durP2;ratioP2;P2;SDS_P1;SDS_P2;PMS_P1;PMS_P2;Temp;Humidity;BMP_temperature;BMP_pressure;BME280_temperature;BME280_humidity;BME280_pressure;Samples;Min_cycle;Max_cycle;Signal;HPM_P1;HPM_P2
2022/03/07 00:00:10;;;;;;;9.52;2.00;;;4.70;92.90;;;;;;5055844;28;20036;-46
2022/03/07 00:02:37;;;;;;;7.80;2.03;;;4.70;92.80;;;;;;5056110;28;20143;-48
2022/03/07 00:05:04;;;;;;;9.88;2.20;;;4.70;92.90;;;;;;5056260;28;20037;-48
2022/03/07 00:07:31;;;;;;;9.63;1.92;;;4.70;92.90;;;;;;5056099;28;20037;-52
2022/03/07 00:09:58;;;;;;;11.52;2.10;;;4.70;92.90;;;;;;5055544;28;20055;-49
2022/03/07 00:12:24;;;;;;;14.13;1.88;;;4.70;92.80;;;;;;5055735;28;20045;-53
2022/03/07 00:14:51;;;;;;;8.68;2.08;;;4.70;92.80;;;;;;5055545;28;20040;-50
2022/03/07 00:17:18;;;;;;;10.80;2.00;;;4.80;92.80;;;;;;5055650;28;20396;-53
2022/03/07 00:19:45;;;;;;;9.35;1.92;;;4.80;92.90;;;;;;5057060;28;20091;-51
2022/03/07 00:22:12;;;;;;;9.77;2.05;;;4.70;92.90;;;;;;5058302;28;20045;-53
2022/03/07 00:24:38;;;;;;;12.45;2.15;;;4.80;93.00;;;;;;5055461;28;20076;-45
2022/03/07 00:27:05;;;;;;;12.68;2.50;;;4.70;93.10;;;;;;5055587;28;20037;-44
2022/03/07 00:29:32;;;;;;;12.20;1.92;;;4.70;93.20;;;;;;5055148;28;20045;-49
2022/03/07 00:31:59;;;;;;;12.30;2.33;;;4.70;93.20;;;;;;5055261;28;20041;-47
2022/03/07 00:34:26;;;;;;;9.55;1.75;;;4.70;93.20;;;;;;5055357;28;20041;-43
2022/03/07 00:36:52;;;;;;;8.95;1.60;;;4.70;93.20;;;;;;5052358;28;20043;-49
2022/03/07 00:39:19;;;;;;;11.25;2.20;;;4.80;93.20;;;;;;5054440;28;20045;-51
2022/03/07 00:41:47;;;;;;;9.15;2.22;;;4.80;93.10;;;;;;5054355;28;20072;-50
2022/03/07 00:44:14;;;;;;;11.38;2.63;;;4.80;93.10;;;;;;5052703;28;20053;-52
2022/03/07 00:46:41;;;;;;;12.02;1.85;;;4.80;93.10;;;;;;5051994;28;20494;-50
2022/03/07 08:56:07;;;;;;;13.35;3.25;;;5.10;95.60;;;;;;5069434;28;20445;-50
2022/03/07 08:58:54;;;;;;;8.60;3.22;;;5.10;95.70;;;;;;5050090;28;20033;-50
2022/03/07 09:01:21;;;;;;;16.58;3.03;;;5.20;95.20;;;;;;5054403;28;20037;-50
2022/03/07 09:03:48;;;;;;;10.77;3.25;;;5.40;95.10;;;;;;5049970;28;20079;-55
2022/03/07 09:06:15;;;;;;;10.52;3.03;;;5.40;94.60;;;;;;5048928;28;20039;-55
2022/03/07 09:08:42;;;;;;;10.77;4.10;;;5.50;94.90;;;;;;5049900;28;20060;-55
2022/03/07 09:11:09;;;;;;;14.82;3.10;;;5.60;94.60;;;;;;5050100;28;20041;-53
2022/03/07 09:13:35;;;;;;;8.68;3.50;;;5.70;94.30;;;;;;5049829;28;20042;-53
2022/03/07 09:16:02;;;;;;;9.45;3.17;;;5.80;93.30;;;;;;5049100;28;20492;-52
2022/03/07 09:18:29;;;;;;;13.02;3.85;;;5.80;92.60;;;;;;5049783;28;20049;-50
2022/03/07 09:20:56;;;;;;;7.95;3.65;;;5.90;91.40;;;;;;5049560;28;20033;-49
2022/03/07 09:23:23;;;;;;;10.25;3.47;;;5.90;90.60;;;;;;5049714;28;20459;-48
2022/03/07 09:25:50;;;;;;;7.35;3.50;;;6.00;91.00;;;;;;5052738;28;20048;-53
2022/03/07 09:28:17;;;;;;;6.05;3.65;;;6.10;91.10;;;;;;5050820;28;20049;-51
2022/03/07 09:30:44;;;;;;;10.65;3.42;;;6.20;90.60;;;;;;5048361;28;20072;-48
2022/03/07 09:33:11;;;;;;;11.10;3.53;;;6.30;89.70;;;;;;5049674;28;20409;-47
2022/03/07 09:35:37;;;;;;;12.80;3.75;;;6.30;90.40;;;;;;5049518;28;20057;-50
2022/03/07 09:38:04;;;;;;;7.65;3.33;;;6.30;89.60;;;;;;5049369;28;20477;-49
2022/03/07 09:40:31;;;;;;;7.22;3.50;;;6.40;89.50;;;;;;5049185;28;20395;-53
2022/03/07 09:42:58;;;;;;;10.43;3.40;;;6.40;89.00;;;;;;5049580;28;20087;-50
2022/03/07 09:45:25;;;;;;;8.15;3.20;;;6.40;88.50;;;;;;5049386;28;20049;-50
2022/03/07 09:47:51;;;;;;;6.50;2.80;;;6.40;87.00;;;;;;5049180;28;20046;-47
2022/03/07 09:50:18;;;;;;;8.77;3.10;;;6.40;86.90;;;;;;5047291;28;20041;-48
2022/03/07 09:52:45;;;;;;;8.77;3.00;;;6.60;88.00;;;;;;5049275;28;20041;-45
2022/03/07 09:55:13;;;;;;;8.98;3.33;;;6.60;87.80;;;;;;5049016;28;20045;-46
2022/03/07 09:57:40;;;;;;;6.50;3.40;;;6.70;86.20;;;;;;5049306;28;20488;-53
2022/03/07 10:00:07;;;;;;;7.20;3.22;;;6.70;84.80;;;;;;5048286;28;20037;-50
2022/03/07 10:02:34;;;;;;;8.88;3.42;;;6.80;83.80;;;;;;5049061;28;20048;-55
2022/03/07 10:05:01;;;;;;;7.93;3.42;;;6.80;83.10;;;;;;5048324;28;20120;-49
2022/03/07 10:07:28;;;;;;;6.57;2.92;;;6.80;82.50;;;;;;5035735;28;20037;-49
2022/03/07 10:09:55;;;;;;;4.70;2.75;;;6.90;82.60;;;;;;5034874;28;20038;-50
2022/03/07 10:12:22;;;;;;;9.13;3.60;;;7.00;81.10;;;;;;5035597;28;20039;-50
2022/03/07 10:14:48;;;;;;;5.13;3.00;;;7.10;81.20;;;;;;5034725;28;20046;-55
2022/03/07 10:17:15;;;;;;;9.13;3.00;;;7.10;80.30;;;;;;5034639;28;20045;-48
2022/03/07 10:19:42;;;;;;;7.10;3.20;;;7.00;80.20;;;;;;5035427;28;20041;-51
2022/03/07 10:22:09;;;;;;;7.03;3.53;;;7.00;80.30;;;;;;5035020;28;20045;-49
2022/03/07 10:24:37;;;;;;;8.40;4.30;;;7.00;81.40;;;;;;5035567;28;20052;-47
2022/03/07 10:27:04;;;;;;;6.70;3.28;;;7.00;80.70;;;;;;5036785;28;20041;-49
2022/03/07 10:29:31;;;;;;;9.85;3.63;;;7.10;79.00;;;;;;5034831;28;20050;-49
2022/03/07 10:31:58;;;;;;;9.27;3.45;;;7.10;79.40;;;;;;5035128;28;20045;-51
2022/03/07 10:34:26;;;;;;;7.45;3.55;;;7.10;77.90;;;;;;5035114;28;20584;-49
2022/03/07 10:36:53;;;;;;;8.18;3.40;;;7.10;76.60;;;;;;5035080;28;20065;-49
2022/03/07 10:39:20;;;;;;;4.57;3.13;;;6.90;77.20;;;;;;5034581;28;20037;-48
2022/03/07 10:41:47;;;;;;;6.75;3.70;;;6.80;77.90;;;;;;5035072;28;20047;-45
2022/03/07 10:44:13;;;;;;;6.20;3.15;;;6.70;77.30;;;;;;5034814;28;20103;-50
2022/03/07 10:46:41;;;;;;;5.90;3.28;;;6.70;75.80;;;;;;5034181;28;20053;-45
2022/03/07 10:49:08;;;;;;;6.32;3.50;;;6.70;76.30;;;;;;5034590;28;20034;-49
2022/03/07 10:51:35;;;;;;;5.78;3.58;;;6.70;76.80;;;;;;5034793;28;20108;-49
2022/03/07 10:54:02;;;;;;;6.95;3.97;;;6.60;75.70;;;;;;5034676;28;20497;-50
2022/03/07 10:56:29;;;;;;;6.25;3.38;;;6.50;76.40;;;;;;5038425;28;20045;-48
2022/03/07 10:58:56;;;;;;;4.45;3.35;;;6.60;76.40;;;;;;5034517;28;20053;-47
2022/03/07 11:01:23;;;;;;;8.43;3.20;;;6.50;76.20;;;;;;5034802;28;20493;-47
2022/03/07 11:03:50;;;;;;;10.63;3.60;;;6.50;77.00;;;;;;5034889;28;20046;-48
2022/03/07 11:06:18;;;;;;;6.57;3.72;;;6.50;77.00;;;;;;5034640;28;20033;-51
2022/03/07 11:08:48;;;;;;;7.82;3.60;;;6.50;75.20;;;;;;5034345;28;20127;-48
2022/03/07 11:11:15;;;;;;;5.40;3.95;;;6.40;77.70;;;;;;5034604;28;20048;-51
2022/03/07 11:13:41;;;;;;;5.75;3.60;;;6.30;76.90;;;;;;5034364;28;20056;-49
2022/03/07 11:16:08;;;;;;;7.38;3.70;;;6.30;77.30;;;;;;5034517;28;20400;-45
2022/03/07 11:18:35;;;;;;;6.90;3.78;;;6.20;77.20;;;;;;5034860;28;20070;-49
2022/03/07 11:21:05;;;;;;;8.18;4.03;;;6.20;77.40;;;;;;5034316;28;20037;-49
2022/03/07 11:23:32;;;;;;;4.63;3.90;;;6.30;78.10;;;;;;5034339;28;20049;-49
2022/03/07 11:25:59;;;;;;;5.13;3.50;;;6.40;76.60;;;;;;5034764;28;20042;-48
2022/03/07 11:28:26;;;;;;;5.50;3.35;;;6.40;77.00;;;;;;5033926;28;20037;-51
2022/03/07 11:30:53;;;;;;;7.28;3.50;;;6.50;78.10;;;;;;5034127;28;20103;-47
2022/03/07 11:33:33;;;;;;;8.77;3.65;;;6.50;76.40;;;;;;5034210;28;20072;-46
2022/03/07 11:36:00;;;;;;;8.52;3.75;;;6.50;76.60;;;;;;5034005;28;20045;-52
2022/03/07 11:38:35;;;;;;;4.88;3.38;;;6.50;76.30;;;;;;5033828;28;20045;-49
2022/03/07 11:41:02;;;;;;;5.23;3.93;;;6.60;76.60;;;;;;5033780;28;20053;-46
2022/03/07 11:43:28;;;;;;;6.38;4.25;;;6.60;76.40;;;;;;5033899;28;20041;-50
2022/03/07 11:45:55;;;;;;;8.77;4.03;;;6.50;75.20;;;;;;5033919;28;20067;-49
2022/03/07 11:48:23;;;;;;;5.60;4.25;;;6.50;75.50;;;;;;5033773;28;20041;-47
2022/03/07 11:50:50;;;;;;;6.20;4.35;;;6.40;76.20;;;;;;5033651;28;20049;-49
2022/03/07 11:53:19;;;;;;;6.35;4.53;;;6.50;75.90;;;;;;5033564;28;20404;-51
2022/03/07 11:55:46;;;;;;;7.57;5.22;;;6.50;76.40;;;;;;5035889;28;20046;-47
2022/03/07 11:58:13;;;;;;;7.30;4.60;;;6.50;76.40;;;;;;5034048;28;20041;-51
2022/03/07 12:00:39;;;;;;;7.63;5.60;;;6.50;76.50;;;;;;5033324;28;20121;-44
2022/03/07 12:03:06;;;;;;;10.15;6.20;;;6.70;76.10;;;;;;5033738;28;20038;-46
2022/03/07 12:05:33;;;;;;;10.65;6.47;;;6.80;75.80;;;;;;5032326;28;20045;-47
2022/03/07 12:08:00;;;;;;;9.25;5.80;;;6.90;74.90;;;;;;5032669;28;20496;-50
2022/03/07 12:10:27;;;;;;;8.48;6.22;;;6.80;75.20;;;;;;5033229;28;20038;-50
2022/03/07 12:12:53;;;;;;;9.43;6.30;;;6.70;75.00;;;;;;5033300;28;20547;-47
2022/03/07 12:15:40;;;;;;;7.53;6.50;;;6.80;75.80;;;;;;5033321;28;20500;-50
2022/03/07 12:18:09;;;;;;;8.38;6.47;;;6.70;75.50;;;;;;5033098;28;20037;-49
2022/03/07 12:20:36;;;;;;;6.95;6.25;;;6.60;75.20;;;;;;5033086;28;20036;-50
2022/03/07 12:23:02;;;;;;;7.07;6.07;;;6.70;76.40;;;;;;5033443;28;20404;-45
2022/03/07 12:25:29;;;;;;;7.38;6.50;;;6.60;75.00;;;;;;5033190;28;20037;-48
2022/03/07 12:27:56;;;;;;;8.65;6.20;;;6.60;74.70;;;;;;5038458;28;20045;-49
2022/03/07 12:30:23;;;;;;;9.90;8.05;;;6.60;75.60;;;;;;5033138;28;20048;-51
2022/03/07 12:32:50;;;;;;;9.35;8.43;;;6.60;74.60;;;;;;5033316;28;20523;-49
2022/03/07 12:35:16;;;;;;;10.82;7.50;;;6.60;75.20;;;;;;5032979;28;20041;-46
2022/03/07 12:37:43;;;;;;;10.07;8.43;;;6.50;74.90;;;;;;5033273;28;20042;-54
2022/03/07 12:40:10;;;;;;;11.27;9.20;;;6.50;74.90;;;;;;5033371;28;20034;-50
2022/03/07 12:42:40;;;;;;;10.65;9.55;;;6.40;75.10;;;;;;5034155;28;20033;-48
2022/03/07 12:45:07;;;;;;;12.45;9.80;;;6.40;75.80;;;;;;5032704;28;20049;-49
2022/03/07 12:47:34;;;;;;;11.85;9.35;;;6.40;76.00;;;;;;5032235;28;20056;-48
2022/03/07 12:50:01;;;;;;;13.38;9.68;;;6.50;76.60;;;;;;5031874;28;20463;-50
2022/03/07 12:52:27;;;;;;;10.23;9.23;;;6.60;76.40;;;;;;5031780;28;20052;-56
2022/03/07 12:54:54;;;;;;;11.05;9.90;;;6.80;74.70;;;;;;5031767;28;20049;-50
2022/03/07 12:57:21;;;;;;;11.43;9.15;;;6.80;73.40;;;;;;5033070;28;20451;-46
2022/03/07 12:59:48;;;;;;;14.30;10.07;;;6.70;74.70;;;;;;5032889;28;20088;-55
2022/03/07 13:02:15;;;;;;;10.95;9.85;;;6.80;73.70;;;;;;5033049;28;20152;-47
2022/03/07 13:04:42;;;;;;;11.68;10.48;;;6.70;75.50;;;;;;5033175;28;20073;-49
2022/03/07 13:07:09;;;;;;;13.85;9.95;;;6.70;76.10;;;;;;5033259;28;20041;-50
2022/03/07 13:09:35;;;;;;;12.75;10.20;;;6.70;76.10;;;;;;5033536;28;20132;-54
2022/03/07 13:12:02;;;;;;;10.85;9.25;;;6.70;76.40;;;;;;5033317;28;20409;-52
2022/03/07 13:14:29;;;;;;;10.82;9.30;;;6.80;74.60;;;;;;5032903;28;20049;-47
2022/03/07 13:16:56;;;;;;;12.02;8.93;;;6.70;73.10;;;;;;5032602;28;20046;-51
2022/03/07 13:19:23;;;;;;;15.25;9.68;;;6.70;74.50;;;;;;5033223;28;20092;-47
2022/03/07 13:21:50;;;;;;;12.18;8.93;;;6.60;75.00;;;;;;5033151;28;20476;-46
2022/03/07 13:24:16;;;;;;;11.77;9.73;;;6.50;75.60;;;;;;5026613;28;20052;-47
2022/03/07 13:26:43;;;;;;;15.48;9.90;;;6.40;76.70;;;;;;5029852;28;20072;-48
2022/03/07 13:29:13;;;;;;;12.65;10.13;;;6.50;76.60;;;;;;5032845;28;20048;-47
2022/03/07 13:31:40;;;;;;;11.85;9.77;;;6.50;75.70;;;;;;5032752;28;20049;-46
2022/03/07 13:34:07;;;;;;;11.00;9.90;;;6.50;75.00;;;;;;5032929;28;20400;-47
2022/03/07 13:36:34;;;;;;;12.45;9.73;;;6.40;75.80;;;;;;5032720;28;20088;-48
2022/03/07 13:39:01;;;;;;;10.70;9.40;;;6.50;75.10;;;;;;5026279;28;20037;-49
2022/03/07 13:41:27;;;;;;;10.63;9.18;;;6.40;74.90;;;;;;5027503;28;20492;-48
2022/03/07 13:43:54;;;;;;;9.85;8.85;;;6.40;75.40;;;;;;5029925;28;20040;-50
2022/03/07 13:46:21;;;;;;;10.35;9.38;;;6.50;75.40;;;;;;5036467;28;20049;-50
2022/03/07 13:48:48;;;;;;;13.20;8.68;;;6.40;76.00;;;;;;5036272;28;20443;-51
2022/03/07 13:51:15;;;;;;;10.40;8.57;;;6.40;75.50;;;;;;5036170;28;20143;-47
2022/03/07 13:53:41;;;;;;;10.10;8.95;;;6.40;75.40;;;;;;5035583;28;20045;-47
2022/03/07 13:56:10;;;;;;;9.05;8.10;;;6.30;75.60;;;;;;5041280;28;20045;-47
2022/03/07 13:58:37;;;;;;;10.30;8.52;;;6.30;73.70;;;;;;5036164;28;20125;-49
2022/03/07 14:01:05;;;;;;;10.30;8.45;;;6.30;74.90;;;;;;5035944;28;20472;-50
2022/03/07 14:03:51;;;;;;;11.85;8.43;;;6.30;75.30;;;;;;5036139;28;20041;-52
2022/03/07 14:06:19;;;;;;;10.25;7.40;;;6.40;75.60;;;;;;5035999;28;20041;-49
2022/03/07 14:08:46;;;;;;;11.25;7.97;;;6.30;74.30;;;;;;5035814;28;20080;-48
2022/03/07 14:11:13;;;;;;;9.55;8.55;;;6.30;75.20;;;;;;5036024;28;20045;-49
2022/03/07 14:13:40;;;;;;;9.43;8.43;;;6.50;75.00;;;;;;5035827;28;20140;-50
2022/03/07 14:16:07;;;;;;;13.45;9.65;;;6.40;76.20;;;;;;5035819;28;20064;-47
2022/03/07 14:18:34;;;;;;;9.35;8.35;;;6.40;76.90;;;;;;5035614;28;20029;-48
2022/03/07 14:21:01;;;;;;;10.30;8.52;;;6.40;75.70;;;;;;5035693;28;20037;-51
2022/03/07 14:23:46;;;;;;;10.63;9.10;;;6.40;74.60;;;;;;5036636;28;20053;-50
2022/03/07 14:26:13;;;;;;;11.45;9.27;;;6.50;76.00;;;;;;5036138;28;20049;-48
2022/03/07 14:28:40;;;;;;;11.13;9.60;;;6.40;76.10;;;;;;5035574;28;20068;-47
2022/03/07 14:31:06;;;;;;;10.82;9.73;;;6.30;76.90;;;;;;5035478;28;20038;-54
2022/03/07 14:33:33;;;;;;;11.85;9.43;;;6.20;76.80;;;;;;5035456;28;20408;-47
2022/03/07 14:36:00;;;;;;;9.93;8.82;;;6.20;78.40;;;;;;5035371;28;20481;-50
2022/03/07 14:38:27;;;;;;;13.82;10.10;;;6.30;77.50;;;;;;5035451;28;20095;-49
2022/03/07 14:40:54;;;;;;;11.57;9.15;;;6.20;76.60;;;;;;5035267;28;20042;-47
2022/03/07 14:43:22;;;;;;;11.63;9.45;;;6.10;76.40;;;;;;5035508;28;20045;-46
2022/03/07 14:45:49;;;;;;;12.50;10.07;;;6.10;76.70;;;;;;5035346;28;20049;-55
2022/03/07 14:48:16;;;;;;;14.10;9.77;;;6.20;77.90;;;;;;5035301;28;20038;-49
2022/03/07 14:50:43;;;;;;;12.38;10.02;;;6.20;77.60;;;;;;5035191;28;20141;-51
2022/03/07 14:53:10;;;;;;;13.15;9.60;;;6.10;78.40;;;;;;5035146;28;20045;-48
2022/03/07 14:55:37;;;;;;;11.40;9.57;;;6.20;78.50;;;;;;5039074;28;20068;-45
2022/03/07 14:58:23;;;;;;;;;;;6.10;77.70;;;;;;5035615;28;20063;-47
2022/03/07 15:00:50;;;;;;;10.75;9.65;;;5.90;78.00;;;;;;5034945;28;19921;-47
2022/03/07 15:03:17;;;;;;;14.23;11.52;;;5.90;79.00;;;;;;5035020;28;20091;-48
2022/03/07 15:05:44;;;;;;;13.32;10.00;;;6.00;78.50;;;;;;5034887;28;20049;-51
2022/03/07 15:08:11;;;;;;;12.93;10.35;;;5.90;78.80;;;;;;5035066;28;20049;-52
2022/03/07 15:10:39;;;;;;;12.95;10.50;;;6.00;78.70;;;;;;5034828;28;20045;-50
2022/03/07 15:13:07;;;;;;;14.38;10.75;;;6.00;78.10;;;;;;5034715;28;20038;-52
2022/03/07 15:15:38;;;;;;;11.05;9.68;;;6.00;78.00;;;;;;5034628;28;20169;-48
2022/03/07 15:18:07;;;;;;;11.45;10.25;;;5.80;77.90;;;;;;5034726;28;20100;-47
2022/03/07 15:20:34;;;;;;;12.27;10.63;;;5.70;78.50;;;;;;5034807;28;20037;-52
2022/03/07 15:23:01;;;;;;;13.30;11.13;;;5.70;78.90;;;;;;5034716;28;20044;-48
2022/03/07 15:25:28;;;;;;;14.20;10.93;;;5.70;79.40;;;;;;5034678;28;20037;-48
2022/03/07 15:27:55;;;;;;;14.32;11.18;;;5.80;79.30;;;;;;5034459;28;20488;-51
2022/03/07 15:30:22;;;;;;;11.95;10.52;;;5.80;79.20;;;;;;5034619;28;20042;-48
2022/03/07 15:32:48;;;;;;;11.35;10.23;;;5.90;79.30;;;;;;5034477;28;20440;-48
2022/03/07 15:35:15;;;;;;;13.05;10.73;;;6.00;79.60;;;;;;5034670;28;20033;-47
2022/03/07 15:37:42;;;;;;;13.80;11.23;;;5.90;78.50;;;;;;5033501;28;20045;-50
2022/03/07 15:40:09;;;;;;;13.32;11.45;;;5.80;78.80;;;;;;5034142;28;20037;-55
2022/03/07 15:42:36;;;;;;;13.90;12.07;;;5.80;79.10;;;;;;5032876;28;20124;-49
2022/03/07 15:45:03;;;;;;;13.00;11.70;;;5.90;79.50;;;;;;5034203;28;20033;-53
2022/03/07 15:47:30;;;;;;;13.50;12.10;;;6.10;79.50;;;;;;5033004;28;20137;-47
2022/03/07 15:49:56;;;;;;;19.25;12.13;;;6.10;79.30;;;;;;5039697;28;20056;-52
2022/03/07 15:52:23;;;;;;;14.30;11.27;;;6.20;78.90;;;;;;5032894;28;20041;-49
2022/03/07 15:54:50;;;;;;;13.18;11.75;;;6.20;79.30;;;;;;5027352;28;20570;-49
2022/03/07 15:57:17;;;;;;;13.50;11.80;;;6.00;77.90;;;;;;5033780;28;20120;-49
2022/03/07 15:59:43;;;;;;;14.05;12.50;;;5.90;78.30;;;;;;5034084;28;20422;-53
2022/03/07 16:02:10;;;;;;;14.65;12.90;;;5.80;78.60;;;;;;5032753;28;20041;-52
2022/03/07 16:04:37;;;;;;;13.70;12.25;;;5.70;79.70;;;;;;5033295;28;20046;-52
2022/03/07 16:07:04;;;;;;;14.00;12.70;;;5.70;80.10;;;;;;5033885;28;20080;-51
2022/03/07 16:09:31;;;;;;;14.45;12.77;;;5.70;80.20;;;;;;5033288;28;20042;-47
2022/03/07 16:11:58;;;;;;;14.63;12.35;;;5.60;79.70;;;;;;5033493;28;20484;-48
2022/03/07 16:14:25;;;;;;;17.48;12.48;;;5.60;80.00;;;;;;5033495;28;20045;-48
2022/03/07 16:16:57;;;;;;;13.50;11.88;;;5.70;80.20;;;;;;5033832;28;20520;-48
2022/03/07 16:19:24;;;;;;;13.48;12.07;;;5.70;79.00;;;;;;5028652;28;20519;-48
2022/03/07 16:21:51;;;;;;;13.80;12.43;;;5.70;79.10;;;;;;5034022;28;20504;-49
2022/03/07 16:24:17;;;;;;;15.15;12.45;;;5.70;79.30;;;;;;5031845;28;20120;-46
2022/03/07 16:26:45;;;;;;;13.90;12.35;;;5.70;79.50;;;;;;5033908;28;20441;-47
2022/03/07 16:29:12;;;;;;;13.77;11.80;;;5.60;80.10;;;;;;5033382;28;20042;-45
2022/03/07 16:31:39;;;;;;;15.35;12.55;;;5.50;80.10;;;;;;5033050;28;20132;-45
2022/03/07 16:34:06;;;;;;;14.80;11.95;;;5.40;80.40;;;;;;5033117;28;20038;-47
2022/03/07 16:36:33;;;;;;;13.18;11.80;;;5.40;81.10;;;;;;5031681;28;20471;-47
2022/03/07 16:39:00;;;;;;;13.18;11.93;;;5.40;80.60;;;;;;5032302;28;20038;-50
2022/03/07 16:41:27;;;;;;;12.65;11.45;;;5.40;81.10;;;;;;5032848;28;20050;-48
2022/03/07 16:43:54;;;;;;;12.65;11.38;;;5.40;81.30;;;;;;5032933;28;20099;-51
2022/03/07 16:46:21;;;;;;;13.75;12.13;;;5.40;80.70;;;;;;5032943;28;20072;-50
2022/03/07 16:48:48;;;;;;;13.10;11.55;;;5.40;81.10;;;;;;5036201;28;20488;-52
2022/03/07 16:51:15;;;;;;;14.20;11.75;;;5.40;81.30;;;;;;5033246;28;20124;-48
2022/03/07 16:53:46;;;;;;;15.77;11.43;;;5.40;82.00;;;;;;5032129;28;20049;-50
2022/03/07 16:56:14;;;;;;;13.30;11.48;;;5.30;80.90;;;;;;5032570;28;20563;-47
2022/03/07 16:58:41;;;;;;;14.10;11.45;;;5.30;81.30;;;;;;5032656;28;20038;-50
2022/03/07 17:01:08;;;;;;;14.38;11.13;;;5.20;81.40;;;;;;5032823;28;20033;-45
2022/03/07 17:03:35;;;;;;;13.20;11.38;;;5.20;81.20;;;;;;5032799;28;20045;-46
2022/03/07 17:06:02;;;;;;;12.18;10.88;;;5.20;81.10;;;;;;5032556;28;20042;-48
2022/03/07 17:08:29;;;;;;;14.02;11.27;;;5.20;80.80;;;;;;5032726;28;20056;-50
2022/03/07 17:10:56;;;;;;;17.70;11.48;;;5.20;81.10;;;;;;5032760;28;20034;-50
2022/03/07 17:13:23;;;;;;;14.18;11.23;;;5.20;80.30;;;;;;5032231;28;20072;-47
2022/03/07 17:15:50;;;;;;;14.50;10.93;;;5.10;79.60;;;;;;5032925;28;20037;-48
2022/03/07 17:18:17;;;;;;;13.15;11.02;;;5.00;80.10;;;;;;5035731;28;20044;-51
2022/03/07 17:20:43;;;;;;;13.85;10.45;;;5.00;80.30;;;;;;5036519;28;20068;-52
2022/03/07 17:23:11;;;;;;;15.23;10.68;;;5.00;80.50;;;;;;5036187;28;20034;-49
2022/03/07 17:25:38;;;;;;;11.82;10.60;;;5.00;81.00;;;;;;5036173;28;20033;-50
2022/03/07 17:28:05;;;;;;;14.25;10.63;;;4.90;81.10;;;;;;5036522;28;20078;-52
2022/03/07 17:30:32;;;;;;;12.05;10.02;;;4.90;81.40;;;;;;5036005;28;20159;-51
2022/03/07 17:32:58;;;;;;;14.02;10.07;;;4.80;81.40;;;;;;5036218;28;20446;-50
2022/03/07 17:35:25;;;;;;;11.50;10.18;;;4.70;81.70;;;;;;5036442;28;20041;-49
2022/03/07 17:37:52;;;;;;;11.75;10.07;;;4.70;81.60;;;;;;5036417;28;20045;-47
2022/03/07 17:40:19;;;;;;;12.25;10.60;;;4.80;81.90;;;;;;5036138;28;20041;-54
2022/03/07 17:42:48;;;;;;;17.23;11.13;;;4.80;82.00;;;;;;5036211;28;20041;-51
2022/03/07 17:45:15;;;;;;;12.30;9.80;;;4.80;82.40;;;;;;5035980;28;20060;-53
2022/03/07 17:47:42;;;;;;;12.88;10.40;;;4.70;82.30;;;;;;5036214;28;20052;-50
2022/03/07 17:50:10;;;;;;;12.15;10.18;;;4.70;82.50;;;;;;5038778;28;20038;-49
2022/03/07 17:52:36;;;;;;;11.93;10.43;;;4.70;82.20;;;;;;5036105;28;20041;-52
2022/03/07 17:55:03;;;;;;;12.63;10.15;;;4.60;82.70;;;;;;5035739;28;20503;-54
2022/03/07 17:57:30;;;;;;;15.60;10.10;;;4.60;82.80;;;;;;5036032;28;20063;-48
2022/03/07 17:59:57;;;;;;;13.95;10.23;;;4.50;82.40;;;;;;5034643;28;20404;-52
2022/03/07 18:02:24;;;;;;;14.32;10.40;;;4.50;82.40;;;;;;5036242;28;20046;-53
2022/03/07 18:04:53;;;;;;;15.02;9.80;;;4.50;82.40;;;;;;5035595;28;20099;-52
2022/03/07 18:07:20;;;;;;;12.95;9.85;;;4.50;82.60;;;;;;5035852;28;20115;-55
2022/03/07 18:09:46;;;;;;;14.43;10.05;;;4.40;82.70;;;;;;5035515;28;20113;-51
2022/03/07 18:12:18;;;;;;;12.65;10.02;;;4.40;83.00;;;;;;5035639;28;20045;-48
2022/03/07 18:14:45;;;;;;;16.27;9.73;;;4.40;82.80;;;;;;5035444;28;20045;-49
2022/03/07 18:17:12;;;;;;;14.52;10.38;;;4.30;83.10;;;;;;5039687;28;20121;-47
2022/03/07 18:19:38;;;;;;;14.50;10.77;;;4.30;83.50;;;;;;5040059;28;20476;-46
2022/03/07 18:22:05;;;;;;;16.45;10.27;;;4.30;83.70;;;;;;5035395;28;20045;-47
2022/03/07 18:24:33;;;;;;;14.57;10.50;;;4.30;84.00;;;;;;5035437;28;20041;-51
2022/03/07 18:27:00;;;;;;;18.48;12.23;;;4.20;84.10;;;;;;5035003;28;20447;-46
2022/03/07 18:29:27;;;;;;;18.55;10.90;;;4.20;84.40;;;;;;5035043;28;20045;-47
2022/03/07 18:31:54;;;;;;;18.95;11.65;;;4.20;84.70;;;;;;5035292;28;20095;-51
2022/03/07 18:34:24;;;;;;;16.40;13.73;;;4.20;84.70;;;;;;5035143;28;20497;-50
2022/03/07 18:36:51;;;;;;;22.40;15.32;;;4.20;84.70;;;;;;5035243;28;20042;-50
2022/03/07 18:39:18;;;;;;;21.50;14.50;;;4.10;84.90;;;;;;5035094;28;20057;-49
2022/03/07 18:41:45;;;;;;;17.45;14.45;;;4.10;85.10;;;;;;5035167;28;20144;-51
2022/03/07 18:44:11;;;;;;;18.42;15.75;;;4.10;85.30;;;;;;5035068;28;20099;-49
2022/03/07 18:46:38;;;;;;;28.30;19.05;;;4.10;85.20;;;;;;5034962;28;20052;-53
2022/03/07 18:49:05;;;;;;;23.98;18.42;;;4.10;85.30;;;;;;5035410;28;20104;-51
2022/03/07 18:51:32;;;;;;;19.92;14.80;;;4.00;85.50;;;;;;5034915;28;20060;-50
2022/03/07 18:53:59;;;;;;;17.83;13.80;;;4.00;85.60;;;;;;5034959;28;20125;-53
2022/03/07 18:56:26;;;;;;;14.48;12.40;;;4.00;85.70;;;;;;5033487;28;20065;-51
2022/03/07 18:58:53;;;;;;;13.52;11.18;;;4.00;85.80;;;;;;5031667;28;20037;-46
2022/03/07 19:01:20;;;;;;;16.75;11.10;;;3.90;86.10;;;;;;5035172;28;20424;-46
2022/03/07 19:03:47;;;;;;;13.57;12.15;;;3.90;86.20;;;;;;5035054;28;20045;-51
2022/03/07 19:06:13;;;;;;;13.07;11.68;;;3.90;86.10;;;;;;5034934;28;20046;-50
2022/03/07 19:08:42;;;;;;;16.85;11.18;;;3.90;86.10;;;;;;5034731;28;20055;-47
2022/03/07 19:11:09;;;;;;;18.35;12.90;;;3.90;86.20;;;;;;5034626;28;20121;-51
2022/03/07 19:13:36;;;;;;;13.68;11.85;;;3.90;86.50;;;;;;5034262;28;20395;-53
2022/03/07 19:16:03;;;;;;;16.83;11.40;;;3.90;86.70;;;;;;5033064;28;20045;-48
2022/03/07 19:18:30;;;;;;;17.70;12.43;;;3.80;86.50;;;;;;5034263;28;20041;-54
2022/03/07 19:20:56;;;;;;;19.30;13.65;;;3.80;86.50;;;;;;5034346;28;20041;-50
2022/03/07 19:23:23;;;;;;;19.80;12.45;;;3.80;86.50;;;;;;5032480;28;20061;-50
2022/03/07 19:25:51;;;;;;;21.38;14.70;;;3.80;86.80;;;;;;5032614;28;20091;-54
2022/03/07 19:28:19;;;;;;;16.15;13.52;;;3.80;86.90;;;;;;5032627;28;20049;-51
2022/03/07 19:30:50;;;;;;;16.73;11.77;;;3.70;86.90;;;;;;5032478;28;20115;-51
2022/03/07 19:33:17;;;;;;;19.35;11.65;;;3.70;87.00;;;;;;5032919;28;20373;-52
2022/03/07 19:35:44;;;;;;;13.75;10.68;;;3.70;87.30;;;;;;5034414;28;20049;-52
2022/03/07 19:38:10;;;;;;;18.50;11.70;;;3.70;87.20;;;;;;5033909;28;20045;-55
2022/03/07 19:40:37;;;;;;;17.83;13.40;;;3.60;87.40;;;;;;5033818;28;20044;-48
2022/03/07 19:43:04;;;;;;;17.33;12.20;;;3.60;87.60;;;;;;5034252;28;20057;-50
2022/03/07 19:45:31;;;;;;;16.35;11.85;;;3.60;87.80;;;;;;5039616;28;20037;-52
2022/03/07 19:47:58;;;;;;;15.38;11.98;;;3.60;87.60;;;;;;5034080;28;20053;-54
2022/03/07 19:50:25;;;;;;;16.58;12.73;;;3.50;88.00;;;;;;5034001;28;20393;-48
2022/03/07 19:52:52;;;;;;;19.92;12.40;;;3.50;88.30;;;;;;5034089;28;20069;-54
2022/03/07 19:55:18;;;;;;;20.83;13.02;;;3.50;88.40;;;;;;5033832;28;20097;-52
2022/03/07 19:57:45;;;;;;;18.08;12.80;;;3.50;88.20;;;;;;5034087;28;20126;-54
2022/03/07 20:00:12;;;;;;;18.80;12.77;;;3.40;88.00;;;;;;5033842;28;20037;-51
2022/03/07 20:02:39;;;;;;;16.15;12.70;;;3.40;87.90;;;;;;5033785;28;20041;-53
2022/03/07 20:05:06;;;;;;;17.52;12.80;;;3.40;87.80;;;;;;5033755;28;20045;-48
2022/03/07 20:07:33;;;;;;;19.00;14.23;;;3.40;87.90;;;;;;5033872;28;20037;-55
2022/03/07 20:10:00;;;;;;;22.77;14.35;;;3.30;87.50;;;;;;5033682;28;20069;-52
2022/03/07 20:12:27;;;;;;;19.40;13.57;;;3.30;87.50;;;;;;5033743;28;20045;-50
2022/03/07 20:14:54;;;;;;;20.52;13.00;;;3.30;87.30;;;;;;5035533;28;20057;-52
2022/03/07 20:17:21;;;;;;;20.08;13.48;;;3.30;86.90;;;;;;5033581;28;20508;-49
2022/03/07 20:19:48;;;;;;;16.05;13.10;;;3.30;87.20;;;;;;5032361;28;20057;-51
2022/03/07 20:22:15;;;;;;;15.43;13.48;;;3.30;86.90;;;;;;5033651;28;20034;-51
2022/03/07 20:24:41;;;;;;;15.60;13.60;;;3.30;86.90;;;;;;5033503;28;20072;-54
2022/03/07 20:27:08;;;;;;;19.88;12.80;;;3.30;86.70;;;;;;5033444;28;20045;-52
2022/03/07 20:29:35;;;;;;;22.50;13.93;;;3.20;86.40;;;;;;5033344;28;20049;-52
2022/03/07 20:32:02;;;;;;;16.45;14.25;;;3.20;86.70;;;;;;5033375;28;20128;-52
2022/03/07 20:34:29;;;;;;;21.77;15.20;;;3.20;86.60;;;;;;5032101;28;20049;-50
2022/03/07 20:36:57;;;;;;;19.58;14.70;;;3.20;86.30;;;;;;5033283;28;20045;-51
2022/03/07 20:39:23;;;;;;;18.58;13.95;;;3.20;86.50;;;;;;5033404;28;20056;-46
2022/03/07 20:41:50;;;;;;;18.17;14.38;;;3.10;86.40;;;;;;5033472;28;20037;-50
2022/03/07 20:44:17;;;;;;;20.63;15.32;;;3.10;86.30;;;;;;5037562;28;20444;-47
2022/03/07 20:46:44;;;;;;;19.05;14.48;;;3.10;86.10;;;;;;5033180;28;20144;-50
2022/03/07 20:49:11;;;;;;;18.05;13.80;;;3.10;86.00;;;;;;5033113;28;20111;-55
2022/03/07 20:51:38;;;;;;;20.15;15.68;;;3.10;85.80;;;;;;5033045;28;20117;-50